KLHX

La Junta Municipal Airport

La Junta, Colorado, USA
METAR KLHX 141653Z AUTO 28007KT 10SM CLR 03/M10 A3036 RMK AO2 SLP301 T00281100
Observed Flight Rules
Dec-14 @ 16:53 UTC (11 minutes ago) Visual Flight Rules
Wind Visibility Clouds
280° at 7 knots 10 miles
  • Clear skies
Temperatures Readings
Current 3°C / 37°F
Dewpoint -10°C / 14°F
Humidity 38%
Altimeter 30.36" Hg
Pressure 1030.1 hPa
Elevation 1277
METAR KLHX 141653Z AUTO 28007KT 10SM CLR 03/M10 A3036 RMK AO2 SLP301 T00281100
Observed Flight Rules
Dec-14 @ 16:53 UTC
(11 minutes ago)
VFR
Wind Visibility
280° at 7 knots 10 miles
Clouds
  • Clear skies
Temperature Dewpoint
3°C / 37°F -10°C / 14°F
Humidity Altimeter Pressure
38% 30.36" Hg 1030.1 hPa